weather.gov     
National Weather Service

Terminal Aerodrome Forecast
NWS Homepage
This page is being discontinued on March 12, 2014.
The same data is available at this site. Please update your bookmarks.
Thank you, and we apologize for the inconvenience.
Please send an email to SR-SRH.Webmaster@noaa.gov with any concerns.


Current Version
Previous Version:    01  02  03  04  05  06  07  08  09  10  11  12  13  14  15  16  17  18  19  20  21  22  23  24  25  26  27  28  29  30  
   31  32  33  34  35  36  37  38  39  40  41  42  43  44  45  46  47  48  49  50  51  52  53  
[Printable]
200
FTUS46 KEKA 221400 AAA
TAFCEC
TAF AMD
KCEC 221445Z 2215/2312 17003KT 6SM BR BKN003 BKN008 OVC100
      TEMPO 2216/2218 BKN008
     FM221800 17006KT P6SM VCSH FEW004 BKN008
      TEMPO 2220/2224 SCT008 SCT050 BKN100
     FM230000 27005KT P6SM OVC010
     FM230500 19005KT 4SM BR OVC009=


U.S. Dept. of Commerce
NOAA National Weather Service
1325 East West Highway
Silver Spring, MD 20910
E-mail: w-nws.webmaster@noaa.gov
Page last modified: May 16, 2007
NATIONAL WEATHER SERVICE: for Safety, for Work, for Fun - FOR LIFE